Private Wetterstation Sandau
Wetterdaten: Donnerstag, 07.02.2013
Datum Zeit Temp. A. Feuchte A. Luftdruck Regen Wind Richtung Richtung Taupunkt Windchill
07.02.2013 00:01 1,7 C 85 % 1001,0 hPa 0,0 l/m 3,6 km/h (1 Bft) W-SW 247 -0,5 C 1,7 C
07.02.2013 00:06 1,6 C 86 % 1001,0 hPa 0,0 l/m 8,6 km/h (2 Bft) W-SW 247 -0,5 C -1,0 C
07.02.2013 00:11 1,6 C 86 % 1000,9 hPa 0,0 l/m 7,6 km/h (2 Bft) SW 225 -0,5 C -0,7 C
07.02.2013 00:16 1,6 C 87 % 1001,0 hPa 0,0 l/m 8,6 km/h (2 Bft) W-SW 247 -0,3 C -1,0 C
07.02.2013 00:21 1,6 C 87 % 1001,2 hPa 0,0 l/m 7,9 km/h (2 Bft) W-SW 247 -0,3 C -0,8 C
07.02.2013 00:26 1,6 C 87 % 1001,2 hPa 0,0 l/m 15,5 km/h (3 Bft) W-SW 247 -0,3 C -2,5 C
07.02.2013 00:31 1,8 C 87 % 1001,2 hPa 0,0 l/m 13,7 km/h (3 Bft) SW 225 -0,1 C -2,0 C
07.02.2013 00:36 1,8 C 87 % 1001,2 hPa 0,0 l/m 9,0 km/h (2 Bft) W-SW 247 -0,1 C -0,9 C
07.02.2013 00:41 1,8 C 88 % 1001,1 hPa 0,0 l/m 6,5 km/h (2 Bft) W-SW 247 0,0 C -0,1 C
07.02.2013 00:46 1,9 C 88 % 1001,2 hPa 0,0 l/m 13,0 km/h (3 Bft) W 270 0,1 C -1,7 C
07.02.2013 00:51 1,9 C 88 % 1001,1 hPa 0,0 l/m 19,8 km/h (3 Bft) SW 225 0,1 C -2,8 C
07.02.2013 00:56 1,9 C 88 % 1001,2 hPa 0,0 l/m 11,9 km/h (2 Bft) W-SW 247 0,1 C -1,5 C
07.02.2013 01:01 2,0 C 88 % 1001,4 hPa 0,0 l/m 9,4 km/h (2 Bft) W 270 0,2 C -0,8 C
07.02.2013 01:06 2,1 C 88 % 1001,3 hPa 0,0 l/m 15,1 km/h (3 Bft) W 270 0,3 C -1,8 C
07.02.2013 01:11 2,1 C 88 % 1001,3 hPa 0,0 l/m 16,9 km/h (3 Bft) W-SW 247 0,3 C -2,1 C
07.02.2013 01:16 2,1 C 88 % 1001,5 hPa 0,0 l/m 13,3 km/h (3 Bft) W 270 0,3 C -1,5 C
07.02.2013 01:21 2,1 C 88 % 1001,4 hPa 0,0 l/m 8,3 km/h (2 Bft) W-SW 247 0,3 C -0,4 C
07.02.2013 01:26 2,1 C 88 % 1001,5 hPa 0,0 l/m 9,4 km/h (2 Bft) W 270 0,3 C -0,7 C
07.02.2013 01:31 2,1 C 88 % 1001,5 hPa 0,0 l/m 7,2 km/h (2 Bft) W 270 0,3 C -0,0 C
07.02.2013 01:36 2,1 C 88 % 1001,5 hPa 0,0 l/m 14,8 km/h (3 Bft) W 270 0,3 C -1,8 C
07.02.2013 01:41 2,1 C 88 % 1001,3 hPa 0,0 l/m 3,2 km/h (1 Bft) W-SW 247 0,3 C 2,1 C
07.02.2013 01:46 1,9 C 88 % 1001,3 hPa 0,0 l/m 2,5 km/h (1 Bft) W-SW 247 0,1 C 1,9 C
07.02.2013 01:51 1,9 C 88 % 1001,4 hPa 0,0 l/m 6,1 km/h (2 Bft) W-NW 292 0,1 C 0,1 C
07.02.2013 01:56 1,9 C 88 % 1001,5 hPa 0,0 l/m 4,7 km/h (1 Bft) W 270 0,1 C 0,7 C
07.02.2013 02:01 1,9 C 88 % 1001,5 hPa 0,0 l/m 3,6 km/h (1 Bft) W 270 0,1 C 1,9 C
07.02.2013 02:06 1,8 C 88 % 1001,6 hPa 0,0 l/m 1,8 km/h (1 Bft) W 270 0,0 C 1,8 C
07.02.2013 02:11 1,9 C 88 % 1001,6 hPa 0,0 l/m 8,6 km/h (2 Bft) W-SW 247 0,1 C -0,7 C
07.02.2013 02:16 1,9 C 88 % 1001,7 hPa 0,0 l/m 3,2 km/h (1 Bft) W-NW 292 0,1 C 1,9 C
07.02.2013 02:21 1,9 C 88 % 1001,6 hPa 0,0 l/m 3,2 km/h (1 Bft) W 270 0,1 C 1,9 C
07.02.2013 02:26 1,9 C 88 % 1001,6 hPa 0,0 l/m 3,2 km/h (1 Bft) W 270 0,1 C 1,9 C
07.02.2013 02:31 1,9 C 88 % 1001,7 hPa 0,0 l/m 3,2 km/h (1 Bft) W 270 0,1 C 1,9 C
07.02.2013 02:36 1,9 C 88 % 1001,8 hPa 0,0 l/m 4,7 km/h (1 Bft) W-SW 247 0,1 C 0,7 C
07.02.2013 02:41 1,9 C 89 % 1001,8 hPa 0,0 l/m 6,1 km/h (2 Bft) N-NW 337 0,3 C 0,1 C
07.02.2013 02:46 1,9 C 89 % 1001,9 hPa 0,0 l/m 4,7 km/h (1 Bft) N 360 0,3 C 0,7 C
07.02.2013 02:51 1,8 C 89 % 1001,9 hPa 0,0 l/m 8,3 km/h (2 Bft) W-NW 292 0,2 C -0,7 C
07.02.2013 02:56 1,8 C 89 % 1001,9 hPa 0,0 l/m 11,5 km/h (2 Bft) NW 315 0,2 C -1,5 C
07.02.2013 03:01 1,6 C 89 % 1001,9 hPa 0,0 l/m 4,0 km/h (1 Bft) W-NW 292 -0,0 C 1,6 C
07.02.2013 03:06 1,5 C 89 % 1002,0 hPa 0,0 l/m 2,5 km/h (1 Bft) W-NW 292 -0,1 C 1,5 C
07.02.2013 03:11 1,3 C 89 % 1002,1 hPa 0,0 l/m 6,1 km/h (2 Bft) W-NW 292 -0,3 C -0,6 C
07.02.2013 03:16 1,3 C 89 % 1001,9 hPa 0,0 l/m 2,5 km/h (1 Bft) W 270 -0,3 C 1,3 C
07.02.2013 03:21 1,2 C 89 % 1001,9 hPa 0,0 l/m 2,5 km/h (1 Bft) W 270 -0,4 C 1,2 C
07.02.2013 03:26 1,1 C 89 % 1001,9 hPa 0,0 l/m 1,8 km/h (1 Bft) W-NW 292 -0,5 C 1,1 C
07.02.2013 03:31 1,0 C 89 % 1002,0 hPa 0,0 l/m 3,2 km/h (1 Bft) W-NW 292 -0,6 C 1,0 C
07.02.2013 03:36 0,9 C 89 % 1002,0 hPa 0,0 l/m 4,3 km/h (1 Bft) W-NW 292 -0,7 C 0,9 C
07.02.2013 03:41 0,9 C 89 % 1002,2 hPa 0,0 l/m 5,0 km/h (1 Bft) W 270 -0,7 C -0,6 C
07.02.2013 03:46 0,9 C 89 % 1002,2 hPa 0,0 l/m 6,5 km/h (2 Bft) W-NW 292 -0,7 C -1,2 C
07.02.2013 03:51 0,9 C 90 % 1002,1 hPa 0,0 l/m 3,6 km/h (1 Bft) W-NW 292 -0,6 C 0,9 C
07.02.2013 03:56 0,9 C 90 % 1002,2 hPa 0,0 l/m 6,5 km/h (2 Bft) N-NW 337 -0,6 C -1,2 C
07.02.2013 04:01 0,9 C 90 % 1002,2 hPa 0,0 l/m 6,5 km/h (2 Bft) NW 315 -0,6 C -1,2 C
07.02.2013 04:06 1,0 C 90 % 1002,3 hPa 0,0 l/m 10,4 km/h (2 Bft) NW 315 -0,5 C -2,2 C
07.02.2013 04:11 1,1 C 90 % 1002,4 hPa 0,0 l/m 7,2 km/h (2 Bft) W-NW 292 -0,4 C -1,2 C
07.02.2013 04:16 1,1 C 91 % 1002,5 hPa 0,0 l/m 2,9 km/h (1 Bft) N-NW 337 -0,2 C 1,1 C
07.02.2013 04:21 1,2 C 91 % 1002,4 hPa 0,0 l/m 5,8 km/h (2 Bft) NW 315 -0,1 C -0,6 C
07.02.2013 04:26 1,2 C 91 % 1002,4 hPa 0,0 l/m 6,1 km/h (2 Bft) W 270 -0,1 C -0,7 C
07.02.2013 04:31 1,3 C 91 % 1002,6 hPa 0,0 l/m 4,0 km/h (1 Bft) NW 315 -0,0 C 1,3 C
07.02.2013 04:36 1,3 C 91 % 1002,6 hPa 0,0 l/m 6,8 km/h (2 Bft) W-NW 292 -0,0 C -0,8 C
07.02.2013 04:41 1,3 C 91 % 1002,7 hPa 0,0 l/m 8,6 km/h (2 Bft) W-NW 292 -0,0 C -1,4 C
07.02.2013 04:46 1,3 C 91 % 1002,8 hPa 0,0 l/m 8,3 km/h (2 Bft) NW 315 -0,0 C -1,3 C
07.02.2013 04:51 1,3 C 91 % 1002,8 hPa 0,0 l/m 4,3 km/h (1 Bft) NW 315 -0,0 C 1,3 C
07.02.2013 04:56 1,3 C 90 % 1002,9 hPa 0,0 l/m 2,2 km/h (1 Bft) W-NW 292 -0,2 C 1,3 C
07.02.2013 05:01 1,2 C 90 % 1003,0 hPa 0,0 l/m 3,6 km/h (1 Bft) NW 315 -0,3 C 1,2 C
07.02.2013 05:06 1,1 C 90 % 1002,8 hPa 0,0 l/m 2,2 km/h (1 Bft) W-NW 292 -0,4 C 1,1 C
07.02.2013 05:11 1,1 C 90 % 1003,0 hPa 0,0 l/m 7,6 km/h (2 Bft) NW 315 -0,4 C -1,3 C
07.02.2013 05:16 1,0 C 90 % 1003,1 hPa 0,0 l/m 7,2 km/h (2 Bft) W 270 -0,5 C -1,3 C
07.02.2013 05:21 1,0 C 90 % 1003,3 hPa 0,0 l/m 5,4 km/h (1 Bft) W-NW 292 -0,5 C -0,6 C
07.02.2013 05:26 0,9 C 90 % 1003,3 hPa 0,0 l/m 5,0 km/h (1 Bft) W-NW 292 -0,6 C -0,6 C
07.02.2013 05:31 0,9 C 90 % 1003,4 hPa 0,0 l/m 4,7 km/h (1 Bft) NW 315 -0,6 C -0,4 C
07.02.2013 05:36 0,9 C 90 % 1003,3 hPa 0,0 l/m 10,4 km/h (2 Bft) N 360 -0,6 C -2,3 C
07.02.2013 05:41 0,9 C 90 % 1003,3 hPa 0,0 l/m 6,8 km/h (2 Bft) N-NW 337 -0,6 C -1,3 C
07.02.2013 05:46 0,8 C 90 % 1003,3 hPa 0,0 l/m 2,2 km/h (1 Bft) W-NW 292 -0,6 C 0,8 C
07.02.2013 05:51 0,8 C 90 % 1003,4 hPa 0,0 l/m 1,4 km/h (1 Bft) N-NW 337 -0,6 C 0,8 C
07.02.2013 05:56 0,8 C 90 % 1003,5 hPa 0,0 l/m 6,5 km/h (2 Bft) NW 315 -0,6 C -1,3 C
07.02.2013 06:01 0,8 C 90 % 1003,6 hPa 0,0 l/m 9,7 km/h (2 Bft) NW 315 -0,6 C -2,3 C
07.02.2013 06:06 0,7 C 90 % 1003,7 hPa 0,0 l/m 5,0 km/h (1 Bft) N 360 -0,7 C -0,8 C
07.02.2013 06:11 0,7 C 90 % 1003,7 hPa 0,0 l/m 5,0 km/h (1 Bft) N 360 -0,7 C -0,8 C
07.02.2013 06:16 0,7 C 90 % 1003,8 hPa 0,0 l/m 4,0 km/h (1 Bft) NW 315 -0,7 C 0,7 C
07.02.2013 06:21 0,6 C 90 % 1003,8 hPa 0,0 l/m 4,0 km/h (1 Bft) N-NO 22 -0,8 C 0,6 C
07.02.2013 06:26 0,6 C 90 % 1003,7 hPa 0,0 l/m 5,8 km/h (2 Bft) N 360 -0,8 C -1,3 C
07.02.2013 06:31 0,6 C 89 % 1003,9 hPa 0,0 l/m 3,6 km/h (1 Bft) N 360 -1,0 C 0,6 C
07.02.2013 06:36 0,6 C 89 % 1004,0 hPa 0,0 l/m 4,0 km/h (1 Bft) W-NW 292 -1,0 C 0,6 C
07.02.2013 06:41 0,6 C 89 % 1004,1 hPa 0,0 l/m 0,0 km/h (0 Bft) W-NW 292 -1,0 C 0,6 C
07.02.2013 06:46 0,6 C 89 % 1004,0 hPa 0,0 l/m 4,0 km/h (1 Bft) W 270 -1,0 C 0,6 C
07.02.2013 06:51 0,6 C 89 % 1004,1 hPa 0,0 l/m 0,0 km/h (0 Bft) W 270 -1,0 C 0,6 C
07.02.2013 06:56 0,6 C 89 % 1004,3 hPa 0,0 l/m 5,0 km/h (1 Bft) W-NW 292 -1,0 C -0,9 C
07.02.2013 07:01 0,6 C 89 % 1004,2 hPa 0,0 l/m 2,5 km/h (1 Bft) NW 315 -1,0 C 0,6 C
07.02.2013 07:06 0,6 C 89 % 1004,1 hPa 0,0 l/m 6,5 km/h (2 Bft) NW 315 -1,0 C -1,5 C
07.02.2013 07:11 0,6 C 89 % 1004,3 hPa 0,0 l/m 8,3 km/h (2 Bft) NW 315 -1,0 C -2,1 C
07.02.2013 07:16 0,6 C 89 % 1004,3 hPa 0,0 l/m 6,5 km/h (2 Bft) NW 315 -1,0 C -1,5 C
07.02.2013 07:21 0,6 C 88 % 1004,4 hPa 0,0 l/m 8,6 km/h (2 Bft) NW 315 -1,2 C -2,2 C
07.02.2013 07:26 0,7 C 88 % 1004,4 hPa 0,0 l/m 5,0 km/h (1 Bft) W 270 -1,1 C -0,8 C
07.02.2013 07:31 0,7 C 88 % 1004,6 hPa 0,0 l/m 11,9 km/h (2 Bft) W-NW 292 -1,1 C -2,9 C
07.02.2013 07:36 0,7 C 88 % 1004,6 hPa 0,0 l/m 6,8 km/h (2 Bft) W-NW 292 -1,1 C -1,5 C
07.02.2013 07:41 0,7 C 88 % 1004,6 hPa 0,0 l/m 7,2 km/h (2 Bft) NW 315 -1,1 C -1,7 C
07.02.2013 07:46 0,6 C 88 % 1004,7 hPa 0,0 l/m 3,2 km/h (1 Bft) W-NW 292 -1,2 C 0,6 C
07.02.2013 07:51 0,6 C 88 % 1004,9 hPa 0,0 l/m 4,0 km/h (1 Bft) W-NW 292 -1,2 C 0,6 C
07.02.2013 07:56 0,6 C 88 % 1004,8 hPa 0,0 l/m 4,0 km/h (1 Bft) NW 315 -1,2 C 0,6 C
07.02.2013 08:01 0,6 C 88 % 1004,9 hPa 0,0 l/m 7,6 km/h (2 Bft) W-NW 292 -1,2 C -1,9 C
07.02.2013 08:06 0,6 C 88 % 1004,9 hPa 0,0 l/m 5,0 km/h (1 Bft) W-NW 292 -1,2 C -0,9 C
07.02.2013 08:11 0,6 C 88 % 1005,0 hPa 0,0 l/m 4,3 km/h (1 Bft) W-NW 292 -1,2 C 0,6 C
07.02.2013 08:16 0,5 C 88 % 1005,1 hPa 0,0 l/m 2,9 km/h (1 Bft) NW 315 -1,3 C 0,5 C
07.02.2013 08:21 0,5 C 88 % 1005,1 hPa 0,0 l/m 5,8 km/h (2 Bft) NW 315 -1,3 C -1,4 C
07.02.2013 08:26 0,5 C 88 % 1005,1 hPa 0,0 l/m 2,5 km/h (1 Bft) N-NO 22 -1,3 C 0,5 C
07.02.2013 08:31 0,5 C 87 % 1005,2 hPa 0,0 l/m 5,4 km/h (1 Bft) NW 315 -1,4 C -1,2 C
07.02.2013 08:36 0,4 C 87 % 1005,1 hPa 0,0 l/m 2,9 km/h (1 Bft) NW 315 -1,5 C 0,4 C
07.02.2013 08:41 0,4 C 87 % 1005,2 hPa 0,0 l/m 5,4 km/h (1 Bft) N-NW 337 -1,5 C -1,3 C
07.02.2013 08:46 0,4 C 87 % 1005,4 hPa 0,0 l/m 0,0 km/h (0 Bft) W-NW 292 -1,5 C 0,4 C
07.02.2013 08:51 0,5 C 87 % 1005,4 hPa 0,0 l/m 3,2 km/h (1 Bft) W-NW 292 -1,4 C 0,5 C
07.02.2013 08:56 0,5 C 87 % 1005,4 hPa 0,0 l/m 0,0 km/h (0 Bft) NW 315 -1,4 C 0,5 C
07.02.2013 09:01 0,5 C 87 % 1005,5 hPa 0,0 l/m 2,5 km/h (1 Bft) W-NW 292 -1,4 C 0,5 C
07.02.2013 09:06 0,6 C 87 % 1005,6 hPa 0,0 l/m 3,6 km/h (1 Bft) NW 315 -1,3 C 0,6 C
07.02.2013 09:11 0,6 C 87 % 1005,8 hPa 0,0 l/m 4,7 km/h (1 Bft) W 270 -1,3 C -0,8 C
07.02.2013 09:16 0,6 C 86 % 1005,7 hPa 0,0 l/m 3,2 km/h (1 Bft) W-NW 292 -1,5 C 0,6 C
07.02.2013 09:21 0,6 C 86 % 1005,9 hPa 0,0 l/m 6,5 km/h (2 Bft) W 270 -1,5 C -1,5 C
07.02.2013 09:26 0,6 C 86 % 1005,8 hPa 0,0 l/m 1,8 km/h (1 Bft) W-NW 292 -1,5 C 0,6 C
07.02.2013 09:31 0,6 C 86 % 1005,9 hPa 0,0 l/m 5,8 km/h (2 Bft) NW 315 -1,5 C -1,3 C
07.02.2013 09:36 0,6 C 86 % 1006,0 hPa 0,0 l/m 4,0 km/h (1 Bft) W 270 -1,5 C 0,6 C
07.02.2013 09:41 0,6 C 85 % 1005,9 hPa 0,0 l/m 5,0 km/h (1 Bft) NW 315 -1,6 C -0,9 C
07.02.2013 09:46 0,6 C 85 % 1006,1 hPa 0,0 l/m 3,2 km/h (1 Bft) W-NW 292 -1,6 C 0,6 C
07.02.2013 09:51 0,6 C 85 % 1006,2 hPa 0,0 l/m 4,0 km/h (1 Bft) W-NW 292 -1,6 C 0,6 C
07.02.2013 09:56 0,6 C 85 % 1006,1 hPa 0,0 l/m 2,5 km/h (1 Bft) W-NW 292 -1,6 C 0,6 C
07.02.2013 10:01 0,6 C 85 % 1006,3 hPa 0,0 l/m 10,4 km/h (2 Bft) W-NW 292 -1,6 C -2,7 C
07.02.2013 10:06 0,6 C 85 % 1006,3 hPa 0,0 l/m 9,7 km/h (2 Bft) NW 315 -1,6 C -2,5 C
07.02.2013 10:11 0,5 C 85 % 1006,3 hPa 0,0 l/m 4,0 km/h (1 Bft) W-NW 292 -1,7 C 0,5 C
07.02.2013 10:16 0,5 C 85 % 1006,3 hPa 0,0 l/m 2,5 km/h (1 Bft) W 270 -1,7 C 0,5 C
07.02.2013 10:21 0,6 C 85 % 1006,4 hPa 0,0 l/m 2,5 km/h (1 Bft) N-NW 337 -1,6 C 0,6 C
07.02.2013 10:26 0,8 C 85 % 1006,4 hPa 0,0 l/m 3,2 km/h (1 Bft) W-NW 292 -1,4 C 0,8 C
07.02.2013 10:31 0,9 C 84 % 1006,4 hPa 0,0 l/m 8,3 km/h (2 Bft) W-NW 292 -1,5 C -1,8 C
07.02.2013 10:36 1,0 C 84 % 1006,5 hPa 0,0 l/m 5,8 km/h (2 Bft) NW 315 -1,4 C -0,8 C
07.02.2013 10:41 1,1 C 84 % 1006,6 hPa 0,0 l/m 6,8 km/h (2 Bft) W-NW 292 -1,3 C -1,1 C
07.02.2013 10:46 1,3 C 83 % 1006,5 hPa 0,0 l/m 4,0 km/h (1 Bft) W-NW 292 -1,3 C 1,3 C
07.02.2013 10:51 1,3 C 83 % 1006,5 hPa 0,0 l/m 4,0 km/h (1 Bft) NW 315 -1,3 C 1,3 C
07.02.2013 10:56 1,3 C 83 % 1006,8 hPa 0,0 l/m 0,0 km/h (0 Bft) W-NW 292 -1,3 C 1,3 C
07.02.2013 11:01 1,3 C 83 % 1006,7 hPa 0,0 l/m 3,2 km/h (1 Bft) W-NW 292 -1,3 C 1,3 C
07.02.2013 11:06 1,4 C 83 % 1006,9 hPa 0,0 l/m 2,2 km/h (1 Bft) W-NW 292 -1,2 C 1,4 C
07.02.2013 11:11 1,6 C 82 % 1006,8 hPa 0,0 l/m 2,9 km/h (1 Bft) N-NO 22 -1,1 C 1,6 C
07.02.2013 11:16 1,6 C 81 % 1006,8 hPa 0,0 l/m 6,5 km/h (2 Bft) W-NW 292 -1,3 C -0,4 C
07.02.2013 11:21 1,6 C 81 % 1006,7 hPa 0,0 l/m 2,5 km/h (1 Bft) W-SW 247 -1,3 C 1,6 C
07.02.2013 11:26 1,8 C 81 % 1006,9 hPa 0,0 l/m 2,5 km/h (1 Bft) W-NW 292 -1,1 C 1,8 C
07.02.2013 11:31 1,9 C 81 % 1007,0 hPa 0,0 l/m 2,2 km/h (1 Bft) W 270 -1,0 C 1,9 C
07.02.2013 11:36 2,1 C 81 % 1006,9 hPa 0,0 l/m 2,2 km/h (1 Bft) NW 315 -0,8 C 2,1 C
07.02.2013 11:41 2,3 C 80 % 1006,9 hPa 0,0 l/m 6,5 km/h (2 Bft) W-NW 292 -0,8 C 0,4 C
07.02.2013 11:46 2,4 C 80 % 1006,9 hPa 0,0 l/m 3,2 km/h (1 Bft) W-NW 292 -0,7 C 2,4 C
07.02.2013 11:51 2,4 C 79 % 1006,9 hPa 0,0 l/m 8,6 km/h (2 Bft) W-SW 247 -0,9 C -0,1 C
07.02.2013 11:56 2,4 C 79 % 1006,9 hPa 0,0 l/m 4,7 km/h (1 Bft) NW 315 -0,9 C 1,3 C
07.02.2013 12:01 2,5 C 79 % 1007,0 hPa 0,0 l/m 0,0 km/h (0 Bft) NW 315 -0,8 C 2,5 C
07.02.2013 12:06 2,6 C 79 % 1006,9 hPa 0,0 l/m 2,5 km/h (1 Bft) W-NW 292 -0,7 C 2,6 C
07.02.2013 12:11 2,6 C 78 % 1006,9 hPa 0,0 l/m 0,0 km/h (0 Bft) W 270 -0,8 C 2,6 C
07.02.2013 12:16 2,6 C 79 % 1007,0 hPa 0,0 l/m 3,2 km/h (1 Bft) W-NW 292 -0,7 C 2,6 C
07.02.2013 12:21 2,5 C 79 % 1006,9 hPa 0,0 l/m 2,2 km/h (1 Bft) W 270 -0,8 C 2,5 C
07.02.2013 12:26 2,6 C 79 % 1007,0 hPa 0,0 l/m 4,3 km/h (1 Bft) W 270 -0,7 C 2,6 C
07.02.2013 12:31 2,6 C 79 % 1007,0 hPa 0,0 l/m 7,9 km/h (2 Bft) NW 315 -0,7 C 0,3 C
07.02.2013 12:36 2,8 C 80 % 1007,0 hPa 0,0 l/m 2,5 km/h (1 Bft) W-NW 292 -0,3 C 2,8 C
07.02.2013 12:41 2,9 C 79 % 1006,8 hPa 0,0 l/m 4,7 km/h (1 Bft) W 270 -0,4 C 1,8 C
07.02.2013 12:46 3,0 C 78 % 1006,9 hPa 0,0 l/m 8,6 km/h (2 Bft) W-NW 292 -0,5 C 0,6 C
07.02.2013 12:51 2,9 C 78 % 1007,0 hPa 0,0 l/m 7,2 km/h (2 Bft) W-NW 292 -0,5 C 0,9 C
07.02.2013 12:56 2,7 C 79 % 1007,0 hPa 0,0 l/m 5,8 km/h (2 Bft) W-NW 292 -0,6 C 1,2 C
07.02.2013 13:01 2,6 C 79 % 1007,1 hPa 0,0 l/m 9,4 km/h (2 Bft) NW 315 -0,7 C -0,1 C
07.02.2013 13:06 2,6 C 80 % 1006,9 hPa 0,0 l/m 5,0 km/h (1 Bft) NW 315 -0,5 C 1,4 C
07.02.2013 13:11 2,5 C 80 % 1007,0 hPa 0,0 l/m 8,3 km/h (2 Bft) W-NW 292 -0,6 C 0,1 C
07.02.2013 13:16 2,4 C 80 % 1007,1 hPa 0,0 l/m 5,0 km/h (1 Bft) NW 315 -0,7 C 1,1 C
07.02.2013 13:21 2,4 C 80 % 1007,2 hPa 0,0 l/m 8,6 km/h (2 Bft) W-NW 292 -0,7 C -0,1 C
07.02.2013 13:26 2,4 C 80 % 1007,2 hPa 0,0 l/m 2,9 km/h (1 Bft) W-NW 292 -0,7 C 2,4 C
07.02.2013 13:31 2,2 C 80 % 1007,0 hPa 0,0 l/m 6,1 km/h (2 Bft) W 270 -0,9 C 0,5 C
07.02.2013 13:36 2,1 C 81 % 1007,0 hPa 0,0 l/m 10,8 km/h (2 Bft) NW 315 -0,8 C -1,0 C
07.02.2013 13:41 2,0 C 81 % 1007,1 hPa 0,0 l/m 4,7 km/h (1 Bft) W-NW 292 -0,9 C 0,8 C
07.02.2013 13:46 1,9 C 82 % 1007,2 hPa 0,0 l/m 6,1 km/h (2 Bft) W-NW 292 -0,8 C 0,1 C
07.02.2013 13:51 1,9 C 82 % 1007,3 hPa 0,0 l/m 8,6 km/h (2 Bft) W-NW 292 -0,8 C -0,7 C
07.02.2013 13:56 2,1 C 82 % 1007,2 hPa 0,0 l/m 8,3 km/h (2 Bft) N-NW 337 -0,6 C -0,4 C
07.02.2013 14:01 2,0 C 82 % 1007,1 hPa 0,0 l/m 1,8 km/h (1 Bft) NW 315 -0,7 C 2,0 C
07.02.2013 14:06 2,0 C 82 % 1007,2 hPa 0,0 l/m 0,0 km/h (0 Bft) N 360 -0,7 C 2,0 C
07.02.2013 14:11 1,9 C 83 % 1007,3 hPa 0,0 l/m 2,9 km/h (1 Bft) N-NW 337 -0,7 C 1,9 C
07.02.2013 14:16 1,7 C 83 % 1007,4 hPa 0,0 l/m 11,2 km/h (2 Bft) N 360 -0,9 C -1,6 C
07.02.2013 14:21 1,5 C 84 % 1007,4 hPa 0,0 l/m 6,8 km/h (2 Bft) N-NO 22 -0,9 C -0,6 C
07.02.2013 14:26 1,3 C 84 % 1007,3 hPa 0,0 l/m 8,6 km/h (2 Bft) N-NO 22 -1,1 C -1,4 C
07.02.2013 14:31 1,3 C 85 % 1007,4 hPa 0,0 l/m 5,4 km/h (1 Bft) N-NO 22 -0,9 C -0,3 C
07.02.2013 14:36 1,3 C 85 % 1007,4 hPa 0,0 l/m 8,3 km/h (2 Bft) N-NO 22 -0,9 C -1,3 C
07.02.2013 14:41 1,3 C 85 % 1007,5 hPa 0,0 l/m 6,8 km/h (2 Bft) NW 315 -0,9 C -0,8 C
07.02.2013 14:46 1,4 C 84 % 1007,5 hPa 0,0 l/m 4,3 km/h (1 Bft) N-NO 22 -1,0 C 1,4 C
07.02.2013 14:51 1,4 C 84 % 1007,6 hPa 0,0 l/m 6,1 km/h (2 Bft) N-NO 22 -1,0 C -0,5 C
07.02.2013 14:56 1,6 C 84 % 1007,6 hPa 0,0 l/m 7,2 km/h (2 Bft) NO 45 -0,8 C -0,6 C
07.02.2013 15:01 1,6 C 83 % 1007,7 hPa 0,0 l/m 4,0 km/h (1 Bft) N 360 -1,0 C 1,6 C
07.02.2013 15:06 1,6 C 83 % 1007,6 hPa 0,0 l/m 6,8 km/h (2 Bft) N-NO 22 -1,0 C -0,5 C
07.02.2013 15:11 1,6 C 83 % 1007,7 hPa 0,0 l/m 4,0 km/h (1 Bft) N 360 -1,0 C 1,6 C
07.02.2013 15:16 1,6 C 83 % 1007,7 hPa 0,0 l/m 6,8 km/h (2 Bft) N-NW 337 -1,0 C -0,5 C
07.02.2013 15:21 1,8 C 83 % 1007,8 hPa 0,0 l/m 0,0 km/h (0 Bft) NW 315 -0,8 C 1,8 C
07.02.2013 15:26 2,0 C 83 % 1007,9 hPa 0,0 l/m 3,2 km/h (1 Bft) N-NW 337 -0,6 C 2,0 C
07.02.2013 15:31 2,4 C 83 % 1007,8 hPa 0,0 l/m 5,0 km/h (1 Bft) NW 315 -0,2 C 1,1 C
07.02.2013 15:36 2,6 C 82 % 1007,9 hPa 0,0 l/m 2,9 km/h (1 Bft) NW 315 -0,2 C 2,6 C
07.02.2013 15:41 2,6 C 81 % 1007,9 hPa 0,0 l/m 2,5 km/h (1 Bft) N-NW 337 -0,3 C 2,6 C
07.02.2013 15:46 2,5 C 80 % 1008,0 hPa 0,0 l/m 2,9 km/h (1 Bft) NW 315 -0,6 C 2,5 C
07.02.2013 15:51 2,4 C 79 % 1007,9 hPa 0,0 l/m 3,2 km/h (1 Bft) N-NO 22 -0,9 C 2,4 C
07.02.2013 15:56 2,3 C 79 % 1007,9 hPa 0,0 l/m 2,2 km/h (1 Bft) N 360 -1,0 C 2,3 C
07.02.2013 16:01 2,2 C 79 % 1007,8 hPa 0,0 l/m 5,0 km/h (1 Bft) NW 315 -1,1 C 0,9 C
07.02.2013 16:06 2,2 C 79 % 1008,0 hPa 0,0 l/m 1,1 km/h (1 Bft) NW 315 -1,1 C 2,2 C
07.02.2013 16:11 2,2 C 79 % 1007,9 hPa 0,0 l/m 4,0 km/h (1 Bft) N-NO 22 -1,1 C 2,2 C
07.02.2013 16:16 2,1 C 79 % 1008,0 hPa 0,0 l/m 2,9 km/h (1 Bft) N 360 -1,2 C 2,1 C
07.02.2013 16:21 1,9 C 79 % 1008,0 hPa 0,0 l/m 5,0 km/h (1 Bft) NW 315 -1,3 C 0,6 C
07.02.2013 16:26 1,8 C 79 % 1008,0 hPa 0,0 l/m 3,6 km/h (1 Bft) W-NW 292 -1,4 C 1,8 C
07.02.2013 16:31 1,8 C 79 % 1008,2 hPa 0,0 l/m 5,8 km/h (2 Bft) N-NW 337 -1,4 C 0,1 C
07.02.2013 16:36 1,6 C 80 % 1008,1 hPa 0,0 l/m 1,4 km/h (1 Bft) W-NW 292 -1,5 C 1,6 C
07.02.2013 16:41 1,5 C 80 % 1008,2 hPa 0,0 l/m 2,5 km/h (1 Bft) NW 315 -1,6 C 1,5 C
07.02.2013 16:46 1,4 C 80 % 1008,2 hPa 0,0 l/m 1,8 km/h (1 Bft) NW 315 -1,7 C 1,4 C
07.02.2013 16:51 1,3 C 80 % 1008,2 hPa 0,0 l/m 4,7 km/h (1 Bft) NW 315 -1,8 C 0,0 C
07.02.2013 16:56 1,3 C 80 % 1008,1 hPa 0,0 l/m 0,0 km/h (0 Bft) NW 315 -1,8 C 1,3 C
07.02.2013 17:01 1,2 C 80 % 1008,3 hPa 0,0 l/m 2,2 km/h (1 Bft) W 270 -1,9 C 1,2 C
07.02.2013 17:06 1,1 C 80 % 1008,3 hPa 0,0 l/m 1,8 km/h (1 Bft) W 270 -2,0 C 1,1 C
07.02.2013 17:11 1,0 C 80 % 1008,2 hPa 0,0 l/m 0,0 km/h (0 Bft) W 270 -2,1 C 1,0 C
07.02.2013 17:16 0,9 C 81 % 1008,2 hPa 0,0 l/m 4,0 km/h (1 Bft) W 270 -2,0 C 0,9 C
07.02.2013 17:21 0,9 C 81 % 1008,2 hPa 0,0 l/m 6,8 km/h (2 Bft) W 270 -2,0 C -1,3 C
07.02.2013 17:26 0,9 C 81 % 1008,4 hPa 0,0 l/m 7,6 km/h (2 Bft) W-SW 247 -2,0 C -1,6 C
07.02.2013 17:31 0,9 C 81 % 1008,5 hPa 0,0 l/m 5,4 km/h (1 Bft) W-NW 292 -2,0 C -0,7 C
07.02.2013 17:36 0,9 C 82 % 1008,7 hPa 0,0 l/m 10,4 km/h (2 Bft) W 270 -1,8 C -2,3 C
07.02.2013 17:41 0,8 C 83 % 1008,7 hPa 0,0 l/m 7,6 km/h (2 Bft) W-NW 292 -1,8 C -1,7 C
07.02.2013 17:46 0,7 C 84 % 1008,6 hPa 0,0 l/m 0,0 km/h (0 Bft) W 270 -1,7 C 0,7 C
07.02.2013 17:51 0,6 C 85 % 1008,8 hPa 0,0 l/m 2,5 km/h (1 Bft) W 270 -1,6 C 0,6 C
07.02.2013 17:56 0,5 C 85 % 1008,7 hPa 0,0 l/m 3,2 km/h (1 Bft) W 270 -1,7 C 0,5 C
07.02.2013 18:01 0,5 C 86 % 1008,7 hPa 0,0 l/m 0,0 km/h (0 Bft) W-SW 247 -1,6 C 0,5 C
07.02.2013 18:06 0,4 C 86 % 1008,6 hPa 0,0 l/m 0,0 km/h (0 Bft) W-NW 292 -1,7 C 0,4 C
07.02.2013 18:11 0,4 C 87 % 1008,8 hPa 0,0 l/m 3,6 km/h (1 Bft) W 270 -1,5 C 0,4 C
07.02.2013 18:16 0,4 C 87 % 1008,8 hPa 0,0 l/m 5,8 km/h (2 Bft) W 270 -1,5 C -1,5 C
07.02.2013 18:21 0,4 C 87 % 1008,7 hPa 0,0 l/m 3,6 km/h (1 Bft) W 270 -1,5 C 0,4 C
07.02.2013 18:26 0,4 C 87 % 1008,7 hPa 0,0 l/m 0,0 km/h (0 Bft) W-NW 292 -1,5 C 0,4 C
07.02.2013 18:31 0,4 C 87 % 1008,8 hPa 0,0 l/m 4,0 km/h (1 Bft) W 270 -1,5 C 0,4 C
07.02.2013 18:36 0,4 C 87 % 1008,8 hPa 0,0 l/m 0,0 km/h (0 Bft) W-NW 292 -1,5 C 0,4 C
07.02.2013 18:41 0,4 C 88 % 1008,7 hPa 0,0 l/m 0,0 km/h (0 Bft) W 270 -1,3 C 0,4 C
07.02.2013 18:46 0,4 C 88 % 1009,0 hPa 0,0 l/m 0,0 km/h (0 Bft) W-SW 247 -1,3 C 0,4 C
07.02.2013 18:51 0,4 C 88 % 1008,9 hPa 0,0 l/m 4,3 km/h (1 Bft) W-SW 247 -1,3 C 0,4 C
07.02.2013 18:56 0,4 C 88 % 1008,9 hPa 0,0 l/m 4,7 km/h (1 Bft) W-SW 247 -1,3 C -1,0 C
07.02.2013 19:01 0,3 C 88 % 1008,9 hPa 0,0 l/m 9,0 km/h (2 Bft) W-SW 247 -1,4 C -2,7 C
07.02.2013 19:06 0,3 C 88 % 1008,9 hPa 0,0 l/m 5,4 km/h (1 Bft) W 270 -1,4 C -1,4 C
07.02.2013 19:11 0,3 C 88 % 1009,0 hPa 0,0 l/m 4,7 km/h (1 Bft) W-SW 247 -1,4 C -1,1 C
07.02.2013 19:16 0,3 C 89 % 1008,9 hPa 0,0 l/m 0,0 km/h (0 Bft) W-SW 247 -1,3 C 0,3 C
07.02.2013 19:21 0,3 C 89 % 1008,8 hPa 0,0 l/m 2,5 km/h (1 Bft) W 270 -1,3 C 0,3 C
07.02.2013 19:26 0,3 C 89 % 1008,9 hPa 0,0 l/m 3,6 km/h (1 Bft) W 270 -1,3 C 0,3 C
07.02.2013 19:31 0,3 C 89 % 1008,9 hPa 0,0 l/m 2,5 km/h (1 Bft) W-SW 247 -1,3 C 0,3 C
07.02.2013 19:36 0,3 C 89 % 1008,9 hPa 0,0 l/m 3,6 km/h (1 Bft) W-SW 247 -1,3 C 0,3 C
07.02.2013 19:41 0,3 C 89 % 1008,9 hPa 0,0 l/m 0,0 km/h (0 Bft) W-NW 292 -1,3 C 0,3 C
07.02.2013 19:46 0,3 C 89 % 1009,2 hPa 0,0 l/m 6,8 km/h (2 Bft) W-NW 292 -1,3 C -2,0 C
07.02.2013 19:51 0,3 C 89 % 1009,1 hPa 0,0 l/m 2,9 km/h (1 Bft) W 270 -1,3 C 0,3 C
07.02.2013 19:56 0,3 C 89 % 1009,0 hPa 0,0 l/m 2,2 km/h (1 Bft) W 270 -1,3 C 0,3 C
07.02.2013 20:01 0,3 C 89 % 1009,1 hPa 0,0 l/m 6,5 km/h (2 Bft) W-NW 292 -1,3 C -1,9 C
07.02.2013 20:06 0,3 C 89 % 1009,1 hPa 0,0 l/m 6,1 km/h (2 Bft) W-NW 292 -1,3 C -1,7 C
07.02.2013 20:11 0,3 C 89 % 1009,1 hPa 0,0 l/m 5,0 km/h (1 Bft) W-NW 292 -1,3 C -1,2 C
07.02.2013 20:16 0,4 C 89 % 1009,1 hPa 0,0 l/m 4,0 km/h (1 Bft) W-NW 292 -1,2 C 0,4 C
07.02.2013 20:21 0,4 C 89 % 1009,0 hPa 0,0 l/m 2,5 km/h (1 Bft) W-NW 292 -1,2 C 0,4 C
07.02.2013 20:26 0,4 C 89 % 1009,1 hPa 0,0 l/m 3,6 km/h (1 Bft) W-NW 292 -1,2 C 0,4 C
07.02.2013 20:31 0,4 C 89 % 1009,2 hPa 0,0 l/m 3,6 km/h (1 Bft) W 270 -1,2 C 0,4 C
07.02.2013 20:36 0,5 C 89 % 1009,1 hPa 0,0 l/m 10,8 km/h (2 Bft) W-NW 292 -1,1 C -2,9 C
07.02.2013 20:41 0,5 C 89 % 1009,1 hPa 0,0 l/m 7,2 km/h (2 Bft) W-NW 292 -1,1 C -1,9 C
07.02.2013 20:46 0,5 C 89 % 1009,2 hPa 0,0 l/m 4,7 km/h (1 Bft) W-NW 292 -1,1 C -0,9 C
07.02.2013 20:51 0,5 C 89 % 1009,2 hPa 0,0 l/m 9,7 km/h (2 Bft) W-NW 292 -1,1 C -2,6 C
07.02.2013 20:56 0,6 C 89 % 1009,2 hPa 0,0 l/m 7,6 km/h (2 Bft) W-NW 292 -1,0 C -1,9 C
07.02.2013 21:01 0,5 C 89 % 1009,4 hPa 0,0 l/m 4,7 km/h (1 Bft) NW 315 -1,1 C -0,9 C
07.02.2013 21:06 0,5 C 89 % 1009,3 hPa 0,0 l/m 5,0 km/h (1 Bft) W-NW 292 -1,1 C -1,0 C
07.02.2013 21:11 0,5 C 89 % 1009,3 hPa 0,0 l/m 7,6 km/h (2 Bft) NW 315 -1,1 C -2,0 C
07.02.2013 21:16 0,4 C 89 % 1009,3 hPa 0,0 l/m 3,6 km/h (1 Bft) NW 315 -1,2 C 0,4 C
07.02.2013 21:21 0,4 C 89 % 1009,3 hPa 0,0 l/m 4,0 km/h (1 Bft) W 270 -1,2 C 0,4 C
07.02.2013 21:26 0,4 C 89 % 1009,4 hPa 0,0 l/m 8,6 km/h (2 Bft) NW 315 -1,2 C -2,5 C
07.02.2013 21:31 0,4 C 89 % 1009,4 hPa 0,0 l/m 2,9 km/h (1 Bft) NW 315 -1,2 C 0,4 C
07.02.2013 21:36 0,3 C 89 % 1009,3 hPa 0,0 l/m 1,8 km/h (1 Bft) NW 315 -1,3 C 0,3 C
07.02.2013 21:41 0,3 C 89 % 1009,4 hPa 0,0 l/m 4,0 km/h (1 Bft) NW 315 -1,3 C 0,3 C
07.02.2013 21:46 0,3 C 90 % 1009,5 hPa 0,0 l/m 1,8 km/h (1 Bft) W-NW 292 -1,1 C 0,3 C
07.02.2013 21:51 0,2 C 90 % 1009,4 hPa 0,0 l/m 3,6 km/h (1 Bft) W-NW 292 -1,2 C 0,2 C
07.02.2013 21:56 0,2 C 90 % 1009,4 hPa 0,0 l/m 3,2 km/h (1 Bft) W 270 -1,2 C 0,2 C
07.02.2013 22:01 0,2 C 90 % 1009,5 hPa 0,0 l/m 3,6 km/h (1 Bft) W-NW 292 -1,2 C 0,2 C
07.02.2013 22:06 0,2 C 90 % 1009,6 hPa 0,0 l/m 2,2 km/h (1 Bft) W 270 -1,2 C 0,2 C
07.02.2013 22:11 0,2 C 90 % 1009,6 hPa 0,0 l/m 0,0 km/h (0 Bft) W-NW 292 -1,2 C 0,2 C
07.02.2013 22:16 0,2 C 90 % 1009,7 hPa 0,0 l/m 2,2 km/h (1 Bft) W-NW 292 -1,2 C 0,2 C
07.02.2013 22:21 0,2 C 90 % 1009,5 hPa 0,0 l/m 2,2 km/h (1 Bft) W 270 -1,2 C 0,2 C
07.02.2013 22:26 0,2 C 90 % 1009,6 hPa 0,0 l/m 4,0 km/h (1 Bft) W-SW 247 -1,2 C 0,2 C
07.02.2013 22:31 0,2 C 90 % 1009,8 hPa 0,0 l/m 6,8 km/h (2 Bft) W-SW 247 -1,2 C -2,1 C
07.02.2013 22:36 0,2 C 90 % 1009,7 hPa 0,0 l/m 2,9 km/h (1 Bft) W-SW 247 -1,2 C 0,2 C
07.02.2013 22:41 0,2 C 90 % 1009,7 hPa 0,0 l/m 6,1 km/h (2 Bft) W 270 -1,2 C -1,8 C
07.02.2013 22:46 0,2 C 90 % 1009,7 hPa 0,0 l/m 9,0 km/h (2 Bft) W 270 -1,2 C -2,8 C
07.02.2013 22:51 0,2 C 91 % 1009,7 hPa 0,0 l/m 7,6 km/h (2 Bft) W-SW 247 -1,1 C -2,4 C
07.02.2013 22:56 0,3 C 91 % 1009,8 hPa 0,0 l/m 6,1 km/h (2 Bft) W 270 -1,0 C -1,7 C
07.02.2013 23:01 0,3 C 91 % 1009,8 hPa 0,0 l/m 1,1 km/h (1 Bft) W 270 -1,0 C 0,3 C
07.02.2013 23:06 0,3 C 91 % 1009,8 hPa 0,0 l/m 8,3 km/h (2 Bft) W-NW 292 -1,0 C -2,5 C
07.02.2013 23:11 0,3 C 91 % 1009,7 hPa 0,0 l/m 1,4 km/h (1 Bft) W 270 -1,0 C 0,3 C
07.02.2013 23:16 0,3 C 91 % 1009,9 hPa 0,0 l/m 2,2 km/h (1 Bft) W 270 -1,0 C 0,3 C
07.02.2013 23:21 0,3 C 91 % 1009,7 hPa 0,0 l/m 3,6 km/h (1 Bft) W 270 -1,0 C 0,3 C
07.02.2013 23:26 0,3 C 91 % 1009,8 hPa 0,0 l/m 6,1 km/h (2 Bft) W-NW 292 -1,0 C -1,7 C
07.02.2013 23:31 0,3 C 91 % 1009,9 hPa 0,0 l/m 2,5 km/h (1 Bft) W 270 -1,0 C 0,3 C
07.02.2013 23:36 0,3 C 91 % 1009,8 hPa 0,0 l/m 1,4 km/h (1 Bft) W 270 -1,0 C 0,3 C
07.02.2013 23:41 0,3 C 91 % 1009,8 hPa 0,0 l/m 1,8 km/h (1 Bft) NW 315 -1,0 C 0,3 C
07.02.2013 23:46 0,3 C 91 % 1009,9 hPa 0,0 l/m 5,4 km/h (1 Bft) W-SW 247 -1,0 C -1,4 C
07.02.2013 23:51 0,3 C 91 % 1010,1 hPa 0,0 l/m 2,2 km/h (1 Bft) W-SW 247 -1,0 C 0,3 C
07.02.2013 23:56 0,3 C 91 % 1009,8 hPa 0,0 l/m 3,6 km/h (1 Bft) W-SW 247 -1,0 C 0,3 C
_ Min-Zeit 21:51 12:11 00:11 - 06:41 - - 17:11 07:31
Minimum _ 0,2 C 78 % 1000,9 hPa - 0,0 km/h (0 Bft) - - -2,1 C -2,9 C
_ Max-Zeit 12:46 04:16 23:51 00:01 00:51 - - 01:06 12:36
Maximum _ 3,0 C 91 % 1010,1 hPa 0,0 l/m 19,8 km/h
SW (3 Bft)
- - 0,3 C 2,8 C
Durchschnitt _ 1,1 C 86 % 1006,1 hPa #0,0 l/m 5,0 km/h (1 Bft) W-NW - -0,9 C 0,0 C
(c) by David Heller